createdAt,value
2022-07-27T00:01:41.025Z,1.30
2022-07-27T00:04:18.801Z,1.50
2022-07-27T00:06:45.580Z,1.20
2022-07-27T00:09:12.413Z,1.23
2022-07-27T00:11:39.177Z,1.40
2022-07-27T00:14:05.883Z,1.02
2022-07-27T00:16:32.653Z,1.17
2022-07-27T00:18:59.222Z,0.93
2022-07-27T00:21:26.665Z,1.05
2022-07-27T00:23:54.577Z,1.10
2022-07-27T00:26:21.308Z,1.00
2022-07-27T00:28:48.594Z,1.55
2022-07-27T00:31:15.846Z,1.10
2022-07-27T00:33:42.529Z,0.95
2022-07-27T00:36:09.375Z,1.05
2022-07-27T00:38:35.863Z,1.17
2022-07-27T00:41:02.424Z,1.63
2022-07-27T00:43:28.909Z,1.92
2022-07-27T00:45:55.446Z,1.63
2022-07-27T00:48:22.001Z,1.10
2022-07-27T00:50:51.250Z,1.10
2022-07-27T00:53:17.838Z,1.13
2022-07-27T00:55:45.495Z,1.00
2022-07-27T00:58:12.631Z,1.08
2022-07-27T01:00:39.205Z,1.00
2022-07-27T01:03:09.056Z,1.20
2022-07-27T01:05:43.214Z,1.20
2022-07-27T01:08:12.751Z,0.88
2022-07-27T01:10:40.803Z,1.20
2022-07-27T01:13:12.774Z,0.85
2022-07-27T01:15:40.483Z,1.20
2022-07-27T01:18:26.466Z,0.85
2022-07-27T01:20:53.271Z,1.10
2022-07-27T01:23:19.755Z,0.88
2022-07-27T01:25:46.377Z,1.02
2022-07-27T01:28:12.872Z,0.70
2022-07-27T01:30:39.477Z,1.17
2022-07-27T01:33:07.906Z,1.00
2022-07-27T01:35:35.189Z,1.33
2022-07-27T01:38:01.790Z,1.00
2022-07-27T01:40:28.472Z,1.23
2022-07-27T01:42:55.248Z,1.15
2022-07-27T01:45:22.080Z,1.38
2022-07-27T01:47:49.197Z,1.00
2022-07-27T01:50:15.925Z,1.10
2022-07-27T01:52:42.431Z,1.10
2022-07-27T01:55:10.761Z,1.02
2022-07-27T01:57:38.455Z,1.15
2022-07-27T02:00:07.518Z,1.00
2022-07-27T02:02:34.081Z,1.15
2022-07-27T02:05:00.662Z,1.08
2022-07-27T02:07:27.163Z,1.10
2022-07-27T02:09:53.736Z,0.98
2022-07-27T02:12:38.426Z,1.00
2022-07-27T02:15:09.021Z,1.23
2022-07-27T02:17:42.619Z,1.08
2022-07-27T02:20:10.646Z,1.10
2022-07-27T02:22:37.279Z,1.35
2022-07-27T02:25:05.010Z,1.30
2022-07-27T02:27:31.653Z,1.30
2022-07-27T02:29:58.184Z,1.13
2022-07-27T02:32:25.065Z,1.05
2022-07-27T02:34:51.867Z,1.13
2022-07-27T02:37:18.363Z,1.55
2022-07-27T02:39:44.919Z,1.50
2022-07-27T02:42:11.496Z,2.05
2022-07-27T02:44:38.139Z,1.60
2022-07-27T02:47:04.844Z,1.33
2022-07-27T02:49:31.399Z,2.00
2022-07-27T02:51:57.974Z,1.60
2022-07-27T02:54:25.547Z,1.38
2022-07-27T02:56:53.311Z,1.40
2022-07-27T02:59:21.162Z,1.17
2022-07-27T03:01:49.051Z,1.20
2022-07-27T03:04:16.097Z,1.83
2022-07-27T03:06:42.881Z,2.28
2022-07-27T03:09:10.408Z,1.60
2022-07-27T03:11:37.186Z,1.65
2022-07-27T03:14:04.305Z,1.70
2022-07-27T03:16:30.805Z,1.75
2022-07-27T03:19:00.145Z,2.47
2022-07-27T03:21:27.023Z,1.83
2022-07-27T03:23:53.880Z,1.65
2022-07-27T03:26:20.390Z,1.67
2022-07-27T03:28:46.877Z,1.70
2022-07-27T03:31:13.474Z,1.63
2022-07-27T03:33:40.178Z,1.58
2022-07-27T03:36:07.293Z,1.77
2022-07-27T03:38:34.277Z,1.70
2022-07-27T03:41:00.943Z,1.63
2022-07-27T03:43:27.388Z,1.77
2022-07-27T03:45:53.919Z,1.80
2022-07-27T03:48:20.468Z,1.65
2022-07-27T03:50:47.006Z,2.10
2022-07-27T03:53:13.537Z,2.00
2022-07-27T03:55:40.182Z,2.03
2022-07-27T03:58:06.629Z,1.48
2022-07-27T04:00:33.145Z,1.98
2022-07-27T04:02:59.712Z,1.92
2022-07-27T04:05:29.445Z,2.30
2022-07-27T04:07:56.737Z,2.00
2022-07-27T04:10:25.062Z,1.90
2022-07-27T04:12:57.347Z,2.38
2022-07-27T04:15:25.233Z,2.00
2022-07-27T04:17:56.470Z,2.25
2022-07-27T04:20:24.482Z,1.80
2022-07-27T04:22:51.132Z,2.67
2022-07-27T04:25:17.648Z,2.05
2022-07-27T04:27:44.238Z,2.50
2022-07-27T04:30:11.300Z,3.03
2022-07-27T04:32:38.256Z,2.42
2022-07-27T04:35:06.745Z,2.40
2022-07-27T04:37:33.969Z,2.08
2022-07-27T04:40:01.074Z,1.95
2022-07-27T04:42:28.537Z,2.42
2022-07-27T04:44:55.073Z,2.10
2022-07-27T04:47:21.786Z,2.05
2022-07-27T04:49:48.535Z,2.50
2022-07-27T04:52:16.339Z,2.13
2022-07-27T04:54:43.157Z,2.30
2022-07-27T04:57:09.897Z,2.55
2022-07-27T04:59:36.414Z,2.35
2022-07-27T05:02:03.657Z,2.78
2022-07-27T05:04:30.486Z,2.13
2022-07-27T05:06:57.704Z,2.92
2022-07-27T05:09:24.254Z,2.75
2022-07-27T05:11:51.895Z,2.97
2022-07-27T05:14:21.364Z,2.92
2022-07-27T05:19:15.396Z,2.72
2022-07-27T05:21:42.317Z,2.65
2022-07-27T05:24:10.045Z,2.78
2022-07-27T05:26:37.133Z,2.92
2022-07-27T05:29:03.687Z,2.55
2022-07-27T05:31:30.542Z,2.67
2022-07-27T05:33:58.429Z,2.38
2022-07-27T05:36:25.661Z,3.10
2022-07-27T05:38:52.199Z,2.38
2022-07-27T05:41:26.824Z,2.60
2022-07-27T05:43:57.369Z,2.70
2022-07-27T05:46:24.897Z,2.40
2022-07-27T05:48:52.957Z,2.15
2022-07-27T05:51:19.532Z,2.53
2022-07-27T05:53:46.334Z,2.70
2022-07-27T05:56:12.917Z,1.98
2022-07-27T05:58:39.482Z,2.08
2022-07-27T06:01:06.070Z,2.05
2022-07-27T06:03:32.794Z,2.38
2022-07-27T06:06:18.598Z,1.90
2022-07-27T06:08:45.125Z,2.20
2022-07-27T06:11:11.992Z,2.67
2022-07-27T06:13:42.154Z,2.00
2022-07-27T06:16:09.662Z,1.95
2022-07-27T06:18:36.299Z,3.40
2022-07-27T06:21:03.182Z,2.10
2022-07-27T06:23:29.725Z,2.55
2022-07-27T06:25:56.590Z,2.13
2022-07-27T06:28:23.425Z,2.47
2022-07-27T06:30:49.928Z,2.78
2022-07-27T06:33:16.487Z,1.80
2022-07-27T06:35:43.907Z,2.15
2022-07-27T06:38:11.695Z,2.30
2022-07-27T06:40:38.321Z,1.70
2022-07-27T06:43:04.934Z,1.92
2022-07-27T06:45:31.458Z,1.98
2022-07-27T06:47:57.933Z,2.08
2022-07-27T06:50:24.636Z,1.75
2022-07-27T06:52:51.228Z,1.77
2022-07-27T06:55:17.882Z,1.58
2022-07-27T06:57:46.211Z,1.60
2022-07-27T07:00:13.394Z,1.58
2022-07-27T07:02:51.631Z,1.75
2022-07-27T07:05:18.214Z,1.52
2022-07-27T07:07:44.730Z,1.60
2022-07-27T07:10:11.400Z,1.10
2022-07-27T07:12:37.944Z,1.65
2022-07-27T07:15:05.243Z,1.50
2022-07-27T07:17:31.796Z,1.30
2022-07-27T07:19:58.316Z,1.70
2022-07-27T07:22:25.796Z,1.52
2022-07-27T07:24:53.402Z,1.42
2022-07-27T07:27:23.725Z,1.20
2022-07-27T07:29:50.767Z,1.48
2022-07-27T07:32:23.012Z,1.10
2022-07-27T07:34:51.387Z,1.33
2022-07-27T07:37:20.033Z,1.60
2022-07-27T07:39:49.487Z,1.58
2022-07-27T07:42:16.771Z,1.33
2022-07-27T07:44:44.268Z,1.60
2022-07-27T07:47:11.286Z,1.60
2022-07-27T07:49:39.957Z,1.10
2022-07-27T07:52:08.154Z,1.85
2022-07-27T07:54:34.990Z,1.30
2022-07-27T07:57:36.605Z,1.27
2022-07-27T08:00:12.150Z,1.27
2022-07-27T08:03:01.138Z,1.40
2022-07-27T08:05:46.863Z,1.50
2022-07-27T08:08:19.274Z,1.48
2022-07-27T08:10:47.807Z,1.40
2022-07-27T08:13:19.562Z,2.33
2022-07-27T08:15:56.562Z,1.55
2022-07-27T08:18:27.162Z,1.58
2022-07-27T08:20:57.361Z,1.30
2022-07-27T08:26:40.884Z,1.00
2022-07-27T08:31:53.503Z,1.20
2022-07-27T08:34:23.801Z,1.50
2022-07-27T08:37:43.459Z,1.73
2022-07-27T08:40:41.145Z,1.42
2022-07-27T08:43:23.445Z,1.30
2022-07-27T08:45:59.991Z,1.30
2022-07-27T08:48:41.379Z,0.95
2022-07-27T08:51:09.661Z,1.20
2022-07-27T08:53:53.652Z,1.40
2022-07-27T08:56:47.339Z,0.85
2022-07-27T08:59:14.457Z,1.10
2022-07-27T09:01:54.613Z,1.25
2022-07-27T09:07:59.455Z,1.05
2022-07-27T09:10:43.983Z,1.60
2022-07-27T09:14:12.524Z,1.10
2022-07-27T09:17:44.180Z,2.05
2022-07-27T09:20:03.715Z,1.25
2022-07-27T09:22:52.619Z,1.05
2022-07-27T09:25:52.241Z,1.58
2022-07-27T09:28:16.883Z,1.05
2022-07-27T09:30:44.497Z,1.08
2022-07-27T09:33:25.338Z,1.10
2022-07-27T09:36:04.687Z,1.67
2022-07-27T09:38:31.261Z,1.10
2022-07-27T09:41:06.817Z,1.30
2022-07-27T09:44:30.473Z,1.20
2022-07-27T09:46:57.501Z,1.02
2022-07-27T09:49:36.322Z,1.38
2022-07-27T09:52:06.001Z,1.00
2022-07-27T09:55:12.926Z,1.20
2022-07-27T09:58:03.433Z,0.93
2022-07-27T10:00:34.908Z,1.05
2022-07-27T10:03:03.614Z,1.00
2022-07-27T10:08:35.991Z,0.90
2022-07-27T10:11:04.126Z,1.00
2022-07-27T10:13:36.561Z,0.90
2022-07-27T10:16:19.947Z,0.90
2022-07-27T10:19:16.297Z,0.93
2022-07-27T10:21:47.817Z,1.35
2022-07-27T10:24:29.017Z,1.13
2022-07-27T10:26:56.187Z,0.80
2022-07-27T10:29:24.367Z,1.10
2022-07-27T10:31:53.936Z,1.02
2022-07-27T10:37:33.336Z,1.30
2022-07-27T10:40:40.249Z,1.10
2022-07-27T10:43:22.018Z,1.00
2022-07-27T10:46:01.726Z,1.25
2022-07-27T10:48:50.480Z,1.30
2022-07-27T10:51:34.383Z,0.93
2022-07-27T10:54:24.123Z,1.23
2022-07-27T10:56:55.064Z,0.93
2022-07-27T11:00:13.340Z,0.70
2022-07-27T11:02:49.443Z,0.93
2022-07-27T11:05:57.918Z,0.90
2022-07-27T11:08:35.578Z,0.98
2022-07-27T11:10:53.746Z,0.82
2022-07-27T11:13:22.286Z,0.63
2022-07-27T11:16:22.818Z,0.90
2022-07-27T11:19:02.061Z,0.77
2022-07-27T11:21:45.754Z,1.05
2022-07-27T11:24:18.757Z,0.98
2022-07-27T11:26:57.546Z,0.82
2022-07-27T11:32:40.621Z,1.30
2022-07-27T11:35:26.613Z,1.00
2022-07-27T11:38:37.185Z,1.27
2022-07-27T11:41:16.864Z,1.20
2022-07-27T11:43:56.771Z,1.00
2022-07-27T11:46:36.383Z,0.80
2022-07-27T11:49:10.627Z,1.15
2022-07-27T11:52:00.622Z,1.00
2022-07-27T11:54:35.332Z,0.90
2022-07-27T11:57:20.325Z,1.35
2022-07-27T11:59:48.678Z,1.00
2022-07-27T12:02:24.223Z,0.93
2022-07-27T12:05:03.045Z,0.93
2022-07-27T12:07:43.695Z,0.90
2022-07-27T12:10:13.438Z,0.90
2022-07-27T12:12:41.423Z,1.00
2022-07-27T12:15:44.292Z,1.08
2022-07-27T12:18:54.936Z,1.25
2022-07-27T12:21:53.057Z,0.77
2022-07-27T12:24:41.718Z,0.93
2022-07-27T12:27:42.984Z,0.80
2022-07-27T12:30:31.487Z,0.77
2022-07-27T12:36:36.147Z,1.00
2022-07-27T12:45:39.288Z,0.77
2022-07-27T12:48:39.808Z,1.02
2022-07-27T12:54:24.264Z,0.90
2022-07-27T12:57:05.140Z,0.90
2022-07-27T12:59:57.994Z,0.95
2022-07-27T13:02:37.662Z,0.98
2022-07-27T13:05:13.699Z,0.80
2022-07-27T13:08:10.953Z,0.90
2022-07-27T13:13:52.971Z,1.02
2022-07-27T13:16:45.684Z,0.98
2022-07-27T13:19:24.995Z,1.10
2022-07-27T13:22:18.157Z,0.88
2022-07-27T13:24:55.139Z,0.70
2022-07-27T13:27:56.175Z,0.65
2022-07-27T13:30:27.655Z,0.80
2022-07-27T13:33:03.773Z,1.15
2022-07-27T13:35:46.291Z,1.17
2022-07-27T13:41:31.293Z,0.95
2022-07-27T13:44:49.064Z,1.13
2022-07-27T13:47:16.784Z,1.00
2022-07-27T13:50:17.236Z,1.08
2022-07-27T13:52:56.262Z,1.02
2022-07-27T13:55:43.798Z,0.75
2022-07-27T14:01:39.742Z,0.90
2022-07-27T14:04:19.498Z,1.10
2022-07-27T14:09:51.613Z,1.00
2022-07-27T14:12:45.764Z,0.90
2022-07-27T14:15:22.567Z,1.00
2022-07-27T14:21:21.259Z,0.93
2022-07-27T14:24:14.498Z,1.23
2022-07-27T14:26:50.934Z,1.10
2022-07-27T14:29:28.440Z,0.90
2022-07-27T14:34:58.326Z,0.80
2022-07-27T14:37:37.275Z,0.95
2022-07-27T14:40:14.359Z,1.10
2022-07-27T14:42:41.981Z,0.80
2022-07-27T14:45:10.165Z,0.80
2022-07-27T14:47:37.964Z,0.80
2022-07-27T14:50:05.107Z,0.93
2022-07-27T14:52:31.736Z,0.90
2022-07-27T14:55:00.405Z,1.08
2022-07-27T14:57:27.668Z,0.90
2022-07-27T14:59:54.634Z,0.75
2022-07-27T15:02:21.225Z,1.10
2022-07-27T15:04:47.872Z,1.25
2022-07-27T15:07:14.776Z,0.70
2022-07-27T15:09:41.509Z,1.02
2022-07-27T15:12:08.278Z,0.80
2022-07-27T15:14:38.881Z,1.10
2022-07-27T15:17:06.127Z,0.90
2022-07-27T15:19:32.917Z,0.88
2022-07-27T15:21:59.470Z,0.93
2022-07-27T15:24:26.047Z,1.10
2022-07-27T15:26:52.678Z,1.00
2022-07-27T15:29:19.150Z,0.93
2022-07-27T15:31:45.778Z,0.60
2022-07-27T15:34:12.362Z,1.00
2022-07-27T15:36:45.843Z,1.10
2022-07-27T15:39:20.718Z,0.90
2022-07-27T15:41:47.774Z,1.30
2022-07-27T15:44:20.119Z,1.10
2022-07-27T15:46:48.015Z,1.20
2022-07-27T15:49:15.152Z,0.80
2022-07-27T15:51:42.018Z,1.02
2022-07-27T15:54:08.544Z,0.95
2022-07-27T15:56:35.090Z,1.00
2022-07-27T15:59:02.034Z,1.05
2022-07-27T16:01:35.190Z,1.40
2022-07-27T16:04:02.587Z,0.90
2022-07-27T16:06:29.251Z,1.05
2022-07-27T16:08:55.770Z,0.93
2022-07-27T16:11:22.867Z,1.00
2022-07-27T16:13:49.428Z,0.80
2022-07-27T16:16:21.836Z,0.90
2022-07-27T16:18:49.382Z,0.68
2022-07-27T16:21:15.837Z,1.08
2022-07-27T16:23:42.419Z,1.15
2022-07-27T16:26:09.030Z,1.13
2022-07-27T16:28:42.246Z,1.40
2022-07-27T16:31:11.428Z,1.25
2022-07-27T16:33:38.489Z,0.90
2022-07-27T16:36:05.909Z,1.25
2022-07-27T16:38:33.363Z,0.93
2022-07-27T16:41:00.032Z,1.00
2022-07-27T16:43:37.354Z,0.90
2022-07-27T16:46:07.222Z,0.80
2022-07-27T16:48:41.890Z,0.80
2022-07-27T16:51:10.988Z,0.80
2022-07-27T16:53:42.745Z,1.15
2022-07-27T16:56:10.172Z,1.08
2022-07-27T16:58:37.521Z,1.10
2022-07-27T17:01:05.036Z,1.00
2022-07-27T17:03:31.734Z,1.17
2022-07-27T17:06:02.229Z,1.10
2022-07-27T17:08:32.114Z,0.95
2022-07-27T17:11:00.509Z,1.20
2022-07-27T17:13:33.848Z,0.98
2022-07-27T17:16:05.786Z,0.85
2022-07-27T17:18:39.385Z,1.10
2022-07-27T17:21:07.419Z,1.00
2022-07-27T17:23:37.893Z,1.10
2022-07-27T17:26:06.803Z,1.00
2022-07-27T17:28:36.622Z,0.88
2022-07-27T17:31:04.595Z,1.10
2022-07-27T17:33:31.310Z,1.00
2022-07-27T17:35:58.807Z,1.38
2022-07-27T17:38:26.972Z,1.00
2022-07-27T17:40:53.836Z,1.00
2022-07-27T17:43:20.608Z,1.15
2022-07-27T17:45:47.285Z,1.38
2022-07-27T17:48:13.985Z,1.10
2022-07-27T17:50:40.492Z,1.02
2022-07-27T17:53:07.011Z,0.98
2022-07-27T17:55:35.617Z,1.33
2022-07-27T17:58:02.100Z,1.20
2022-07-27T18:00:29.196Z,0.75
2022-07-27T18:02:56.246Z,1.27
2022-07-27T18:05:22.785Z,1.23
2022-07-27T18:07:51.868Z,1.15
2022-07-27T18:10:18.488Z,1.17
2022-07-27T18:12:45.025Z,0.85
2022-07-27T18:15:30.259Z,1.13
2022-07-27T18:17:56.969Z,0.80
2022-07-27T18:20:23.616Z,0.52
2022-07-27T18:22:50.222Z,0.85
2022-07-27T18:25:16.903Z,0.93
2022-07-27T18:27:44.844Z,0.57
2022-07-27T18:30:12.334Z,0.70
2022-07-27T18:32:39.416Z,0.90
2022-07-27T18:35:06.434Z,1.13
2022-07-27T18:37:32.963Z,0.85
2022-07-27T18:39:59.573Z,0.90
2022-07-27T18:42:26.088Z,0.90
2022-07-27T18:44:52.811Z,0.75
2022-07-27T18:47:19.409Z,0.90
2022-07-27T18:49:45.875Z,1.20
2022-07-27T18:52:13.074Z,0.82
2022-07-27T18:54:39.792Z,0.90
2022-07-27T18:57:06.318Z,0.80
2022-07-27T18:59:35.572Z,1.05
2022-07-27T19:02:07.468Z,1.48
2022-07-27T19:04:34.082Z,0.88
2022-07-27T19:07:00.769Z,1.08
2022-07-27T19:09:28.293Z,1.23
2022-07-27T19:11:54.851Z,0.90
2022-07-27T19:14:23.051Z,0.95
2022-07-27T19:16:51.221Z,1.08
2022-07-27T19:19:22.772Z,1.33
2022-07-27T19:21:49.773Z,1.20
2022-07-27T19:24:16.386Z,0.90
2022-07-27T19:26:44.855Z,1.00
2022-07-27T19:29:20.590Z,1.38
2022-07-27T19:31:47.731Z,0.90
2022-07-27T19:34:14.276Z,1.17
2022-07-27T19:36:40.873Z,0.85
2022-07-27T19:39:08.284Z,0.98
2022-07-27T19:41:35.307Z,1.10
2022-07-27T19:44:02.353Z,1.33
2022-07-27T19:46:29.221Z,0.90
2022-07-27T19:48:55.985Z,1.00
2022-07-27T19:51:22.615Z,1.45
2022-07-27T19:53:49.490Z,1.10
2022-07-27T19:56:16.314Z,1.73
2022-07-27T19:58:42.857Z,0.93
2022-07-27T20:01:11.476Z,1.20
2022-07-27T20:03:53.872Z,1.35
2022-07-27T20:06:22.503Z,1.58
2022-07-27T20:08:49.118Z,0.90
2022-07-27T20:11:17.074Z,1.10
2022-07-27T20:13:43.638Z,1.00
2022-07-27T20:16:10.332Z,0.98
2022-07-27T20:18:37.594Z,1.23
2022-07-27T20:21:04.366Z,1.63
2022-07-27T20:23:48.788Z,1.45
2022-07-27T20:26:15.280Z,1.30
2022-07-27T20:28:41.892Z,1.60
2022-07-27T20:31:08.464Z,0.88
2022-07-27T20:33:35.062Z,1.00
2022-07-27T20:36:01.599Z,1.17
2022-07-27T20:38:28.189Z,1.10
2022-07-27T20:40:55.233Z,1.20
2022-07-27T20:43:21.754Z,0.95
2022-07-27T20:45:48.248Z,1.05
2022-07-27T20:48:14.979Z,1.27
2022-07-27T20:50:41.486Z,1.10
2022-07-27T20:53:07.967Z,1.23
2022-07-27T20:55:36.066Z,1.30
2022-07-27T20:58:02.618Z,1.58
2022-07-27T21:00:29.450Z,1.77
2022-07-27T21:02:56.496Z,1.55
2022-07-27T21:05:26.883Z,1.60
2022-07-27T21:07:54.608Z,1.30
2022-07-27T21:10:22.757Z,1.60
2022-07-27T21:12:50.705Z,1.25
2022-07-27T21:15:17.599Z,1.15
2022-07-27T21:17:44.311Z,1.10
2022-07-27T21:20:11.544Z,1.88
2022-07-27T21:22:38.200Z,1.00
2022-07-27T21:25:04.933Z,1.00
2022-07-27T21:27:32.100Z,0.90
2022-07-27T21:29:59.142Z,1.02
2022-07-27T21:32:25.718Z,1.10
2022-07-27T21:34:52.233Z,1.10
2022-07-27T21:37:18.870Z,1.20
2022-07-27T21:39:45.801Z,1.10
2022-07-27T21:42:12.588Z,0.90
2022-07-27T21:44:39.515Z,1.02
2022-07-27T21:47:11.474Z,0.95
2022-07-27T21:49:40.211Z,1.00
2022-07-27T21:52:07.479Z,1.00
2022-07-27T21:54:33.980Z,1.08
2022-07-27T21:57:00.660Z,0.85
2022-07-27T21:59:27.233Z,0.98
2022-07-27T22:01:53.761Z,1.10
2022-07-27T22:04:21.205Z,0.90
2022-07-27T22:06:47.729Z,1.00
2022-07-27T22:09:14.310Z,0.88
2022-07-27T22:11:40.962Z,1.10
2022-07-27T22:14:07.533Z,0.90
2022-07-27T22:16:34.426Z,1.10
2022-07-27T22:19:00.993Z,1.02
2022-07-27T22:21:28.826Z,1.40
2022-07-27T22:23:55.317Z,1.10
2022-07-27T22:26:21.847Z,1.00
2022-07-27T22:28:48.605Z,1.20
2022-07-27T22:31:21.800Z,0.93
2022-07-27T22:33:49.837Z,1.20
2022-07-27T22:36:16.423Z,0.82
2022-07-27T22:38:43.005Z,1.58
2022-07-27T22:41:09.954Z,1.13
2022-07-27T22:43:36.466Z,1.02
2022-07-27T22:46:04.101Z,1.30
2022-07-27T22:48:30.787Z,0.93
2022-07-27T22:50:57.439Z,0.95
2022-07-27T22:53:23.963Z,0.90
2022-07-27T22:55:50.537Z,0.82
2022-07-27T22:58:17.015Z,1.00
2022-07-27T23:00:43.634Z,1.50
2022-07-27T23:03:10.219Z,1.00
2022-07-27T23:05:36.917Z,0.90
2022-07-27T23:08:03.475Z,1.02
2022-07-27T23:10:48.501Z,1.00
2022-07-27T23:13:17.287Z,1.00
2022-07-27T23:15:44.877Z,1.10
2022-07-27T23:18:12.072Z,1.02
2022-07-27T23:20:39.695Z,0.93
2022-07-27T23:23:12.411Z,1.00
2022-07-27T23:25:43.179Z,1.10
2022-07-27T23:28:09.645Z,1.17
2022-07-27T23:30:36.167Z,1.45
2022-07-27T23:33:02.710Z,1.20
2022-07-27T23:35:29.541Z,1.55
2022-07-27T23:37:56.152Z,0.95
2022-07-27T23:40:22.635Z,1.40
2022-07-27T23:42:49.754Z,1.17
2022-07-27T23:45:16.499Z,1.75
2022-07-27T23:47:43.054Z,1.92
2022-07-27T23:50:10.493Z,1.08
2022-07-27T23:52:37.792Z,1.30
2022-07-27T23:55:05.556Z,1.42
2022-07-27T23:57:32.174Z,1.30
2022-07-27T23:59:58.719Z,1.10
